createdAt,value
2022-07-26T00:01:52.629Z,100501.31
2022-07-26T00:04:38.148Z,100495.25
2022-07-26T00:07:23.684Z,100495.06
2022-07-26T00:10:09.205Z,100495.97
2022-07-26T00:12:54.295Z,100496.88
2022-07-26T00:15:39.808Z,100503.59
2022-07-26T00:18:25.474Z,100500.16
2022-07-26T00:21:11.670Z,100497.81
2022-07-26T00:23:57.496Z,100502.41
2022-07-26T00:26:43.107Z,100501.31
2022-07-26T00:29:28.042Z,100501.22
2022-07-26T00:32:13.363Z,100504.75
2022-07-26T00:34:58.878Z,100511.13
2022-07-26T00:37:44.292Z,100512.03
2022-07-26T00:40:29.680Z,100509.41
2022-07-26T00:43:15.107Z,100504.41
2022-07-26T00:46:00.879Z,100501.78
2022-07-26T00:48:46.028Z,100507.91
2022-07-26T00:51:31.359Z,100508.63
2022-07-26T00:54:17.101Z,100518.25
2022-07-26T00:57:03.290Z,100511.94
2022-07-26T00:59:48.839Z,100518.59
2022-07-26T01:02:34.402Z,100518.66
2022-07-26T01:05:20.130Z,100518.66
2022-07-26T01:08:05.170Z,100527.75
2022-07-26T01:10:51.269Z,100516.28
2022-07-26T01:13:36.692Z,100511.81
2022-07-26T01:16:22.729Z,100517.81
2022-07-26T01:19:08.185Z,100507.59
2022-07-26T01:21:53.804Z,100507.38
2022-07-26T01:24:39.019Z,100506.91
2022-07-26T01:27:24.293Z,100523.75
2022-07-26T01:30:11.628Z,100511.41
2022-07-26T01:32:57.099Z,100513.41
2022-07-26T01:35:42.404Z,100517.91
2022-07-26T01:38:27.999Z,100516.22
2022-07-26T01:41:13.186Z,100521.97
2022-07-26T01:43:58.159Z,100512.88
2022-07-26T01:46:43.622Z,100513.50
2022-07-26T01:49:28.594Z,100513.81
2022-07-26T01:52:13.867Z,100517.66
2022-07-26T01:54:59.273Z,100526.19
2022-07-26T01:57:45.985Z,100534.41
2022-07-26T02:00:31.507Z,100525.34
2022-07-26T02:03:16.834Z,100529.06
2022-07-26T02:06:02.971Z,100539.84
2022-07-26T02:08:48.581Z,100539.41
2022-07-26T02:11:34.493Z,100548.19
2022-07-26T02:14:26.049Z,100541.25
2022-07-26T02:17:13.239Z,100542.78
2022-07-26T02:19:58.573Z,100552.72
2022-07-26T02:22:43.736Z,100546.41
2022-07-26T02:25:29.374Z,100558.56
2022-07-26T02:28:15.502Z,100561.50
2022-07-26T02:31:00.708Z,100559.66
2022-07-26T02:33:45.986Z,100559.72
2022-07-26T02:36:30.770Z,100571.38
2022-07-26T02:39:16.303Z,100572.13
2022-07-26T02:42:03.396Z,100563.44
2022-07-26T02:44:48.419Z,100576.53
2022-07-26T02:47:33.972Z,100582.88
2022-07-26T02:50:20.437Z,100579.56
2022-07-26T02:53:05.537Z,100575.25
2022-07-26T02:55:50.264Z,100571.75
2022-07-26T02:58:36.276Z,100576.19
2022-07-26T03:01:21.430Z,100579.72
2022-07-26T03:04:06.654Z,100576.25
2022-07-26T03:06:51.849Z,100580.44
2022-07-26T03:09:36.661Z,100580.72
2022-07-26T03:12:21.656Z,100584.16
2022-07-26T03:15:06.812Z,100578.97
2022-07-26T03:17:51.904Z,100583.44
2022-07-26T03:20:37.393Z,100581.56
2022-07-26T03:23:22.172Z,100578.81
2022-07-26T03:26:07.082Z,100572.50
2022-07-26T03:28:51.986Z,100575.00
2022-07-26T03:31:37.052Z,100578.59
2022-07-26T03:34:22.322Z,100590.78
2022-07-26T03:37:07.247Z,100583.88
2022-07-26T03:39:52.716Z,100593.50
2022-07-26T03:42:37.672Z,100580.16
2022-07-26T03:45:22.954Z,100575.75
2022-07-26T03:48:07.670Z,100588.94
2022-07-26T03:50:52.671Z,100594.41
2022-07-26T03:53:37.616Z,100579.38
2022-07-26T03:56:23.577Z,100586.44
2022-07-26T03:59:10.576Z,100587.19
2022-07-26T04:01:55.467Z,100594.22
2022-07-26T04:04:40.797Z,100599.38
2022-07-26T04:07:27.179Z,100600.16
2022-07-26T04:10:13.447Z,100599.13
2022-07-26T04:12:58.444Z,100590.38
2022-07-26T04:15:43.276Z,100602.69
2022-07-26T04:18:28.411Z,100598.47
2022-07-26T04:21:13.359Z,100601.00
2022-07-26T04:23:58.888Z,100604.56
2022-07-26T04:26:44.152Z,100590.44
2022-07-26T04:29:28.972Z,100603.69
2022-07-26T04:32:13.889Z,100600.31
2022-07-26T04:34:58.590Z,100606.38
2022-07-26T04:37:44.988Z,100607.91
2022-07-26T04:40:30.808Z,100606.03
2022-07-26T04:43:16.278Z,100605.28
2022-07-26T04:46:01.643Z,100609.09
2022-07-26T04:48:46.810Z,100603.69
2022-07-26T04:51:32.189Z,100595.66
2022-07-26T04:54:17.305Z,100600.91
2022-07-26T04:57:02.345Z,100602.31
2022-07-26T04:59:58.122Z,100603.34
2022-07-26T05:02:55.123Z,100609.59
2022-07-26T05:05:40.359Z,100606.88
2022-07-26T05:08:25.393Z,100605.91
2022-07-26T05:11:10.496Z,100618.16
2022-07-26T05:13:55.604Z,100606.50
2022-07-26T05:16:44.352Z,100605.81
2022-07-26T05:19:30.333Z,100617.09
2022-07-26T05:22:15.941Z,100609.00
2022-07-26T05:25:00.817Z,100601.72
2022-07-26T05:27:45.642Z,100603.72
2022-07-26T05:30:30.608Z,100616.78
2022-07-26T05:33:16.577Z,100603.28
2022-07-26T05:36:01.969Z,100604.28
2022-07-26T05:38:46.695Z,100609.31
2022-07-26T05:41:31.845Z,100600.34
2022-07-26T05:44:16.704Z,100601.31
2022-07-26T05:47:03.727Z,100619.16
2022-07-26T05:49:48.970Z,100621.66
2022-07-26T05:52:33.896Z,100635.03
2022-07-26T05:55:18.916Z,100628.19
2022-07-26T05:58:03.870Z,100636.28
2022-07-26T06:00:48.744Z,100636.34
2022-07-26T06:03:34.011Z,100643.91
2022-07-26T06:06:19.032Z,100640.19
2022-07-26T06:09:04.092Z,100639.34
2022-07-26T06:11:49.136Z,100646.28
2022-07-26T06:14:34.445Z,100635.56
2022-07-26T06:17:19.459Z,100640.38
2022-07-26T06:20:04.997Z,100619.88
2022-07-26T06:22:49.849Z,100642.16
2022-07-26T06:25:35.284Z,100644.94
2022-07-26T06:28:20.420Z,100648.03
2022-07-26T06:31:05.782Z,100639.03
2022-07-26T06:33:50.685Z,100649.31
2022-07-26T06:36:35.488Z,100637.38
2022-07-26T06:39:20.527Z,100653.03
2022-07-26T06:42:05.594Z,100660.16
2022-07-26T06:44:50.517Z,100667.50
2022-07-26T06:47:35.339Z,100680.66
2022-07-26T06:50:25.521Z,100676.41
2022-07-26T06:53:11.255Z,100683.59
2022-07-26T06:55:56.123Z,100673.91
2022-07-26T06:58:42.304Z,100680.94
2022-07-26T07:01:58.138Z,100668.47
2022-07-26T07:04:33.392Z,100681.56
2022-07-26T07:07:18.627Z,100690.56
2022-07-26T07:10:05.011Z,100688.91
2022-07-26T07:12:51.261Z,100681.72
2022-07-26T07:15:36.234Z,100682.34
2022-07-26T07:18:21.358Z,100688.78
2022-07-26T07:21:06.889Z,100692.06
2022-07-26T07:23:52.123Z,100692.66
2022-07-26T07:26:37.389Z,100685.38
2022-07-26T07:29:22.297Z,100690.59
2022-07-26T07:32:07.639Z,100694.97
2022-07-26T07:35:01.000Z,100696.69
2022-07-26T07:37:53.539Z,100704.56
2022-07-26T07:40:39.167Z,100713.91
2022-07-26T07:43:24.140Z,100712.19
2022-07-26T07:46:08.847Z,100710.16
2022-07-26T07:48:53.757Z,100705.97
2022-07-26T07:51:39.015Z,100701.66
2022-07-26T07:54:23.798Z,100703.16
2022-07-26T07:57:10.271Z,100700.06
2022-07-26T07:59:56.086Z,100672.16
2022-07-26T08:02:41.139Z,100672.78
2022-07-26T08:05:26.676Z,100672.25
2022-07-26T08:08:11.844Z,100663.44
2022-07-26T08:10:59.343Z,100676.59
2022-07-26T08:13:47.724Z,100666.00
2022-07-26T08:16:33.415Z,100644.03
2022-07-26T08:19:18.386Z,100628.59
2022-07-26T08:22:04.829Z,100625.69
2022-07-26T08:24:50.575Z,100649.91
2022-07-26T08:27:40.912Z,100621.75
2022-07-26T08:30:26.261Z,100619.91
2022-07-26T08:33:11.144Z,100645.31
2022-07-26T08:35:58.621Z,100653.03
2022-07-26T08:38:44.893Z,100653.00
2022-07-26T08:41:32.843Z,100626.13
2022-07-26T08:44:17.834Z,100586.63
2022-07-26T08:47:03.296Z,100618.91
2022-07-26T08:49:48.389Z,100606.94
2022-07-26T08:52:33.462Z,100614.72
2022-07-26T08:55:20.658Z,100607.56
2022-07-26T08:58:05.787Z,100582.44
2022-07-26T09:01:11.217Z,100597.56
2022-07-26T09:03:56.320Z,100601.16
2022-07-26T09:06:57.477Z,100561.16
2022-07-26T09:09:54.533Z,100581.72
2022-07-26T09:12:40.512Z,100588.03
2022-07-26T09:15:27.791Z,100584.75
2022-07-26T09:18:27.703Z,100593.94
2022-07-26T09:21:33.344Z,100625.19
2022-07-26T09:24:32.388Z,100586.34
2022-07-26T09:27:18.392Z,100593.03
2022-07-26T09:30:08.609Z,100596.31
2022-07-26T09:32:59.644Z,100618.38
2022-07-26T09:36:04.813Z,100635.75
2022-07-26T09:38:56.061Z,100723.88
2022-07-26T09:41:41.226Z,100757.00
2022-07-26T09:44:26.401Z,100762.47
2022-07-26T09:47:11.512Z,100777.69
2022-07-26T09:50:15.333Z,100801.94
2022-07-26T09:53:00.635Z,100812.00
2022-07-26T09:55:45.468Z,100833.66
2022-07-26T09:58:31.387Z,100831.09
2022-07-26T10:01:16.542Z,100835.13
2022-07-26T10:04:03.605Z,100833.09
2022-07-26T10:06:49.140Z,100839.66
2022-07-26T10:09:55.144Z,100833.56
2022-07-26T10:12:40.637Z,100849.06
2022-07-26T10:15:36.574Z,100843.03
2022-07-26T10:18:36.943Z,100839.84
2022-07-26T10:21:31.706Z,100845.25
2022-07-26T10:24:26.257Z,100835.84
2022-07-26T10:27:37.019Z,100842.84
2022-07-26T10:30:33.592Z,100842.91
2022-07-26T10:33:24.297Z,100829.34
2022-07-26T10:36:30.806Z,100853.19
2022-07-26T10:39:16.127Z,100858.50
2022-07-26T10:42:07.650Z,100857.28
2022-07-26T10:45:19.566Z,100870.53
2022-07-26T10:48:21.562Z,100868.19
2022-07-26T10:51:25.036Z,100859.41
2022-07-26T10:54:12.775Z,100855.34
2022-07-26T10:56:58.213Z,100855.88
2022-07-26T10:59:55.840Z,100861.19
2022-07-26T11:02:42.016Z,100859.69
2022-07-26T11:05:32.514Z,100864.91
2022-07-26T11:08:17.765Z,100866.53
2022-07-26T11:11:02.510Z,100851.25
2022-07-26T11:13:47.511Z,100860.81
2022-07-26T11:16:38.441Z,100853.50
2022-07-26T11:19:24.281Z,100882.06
2022-07-26T11:22:09.496Z,100854.66
2022-07-26T11:24:56.443Z,100857.78
2022-07-26T11:28:00.644Z,100877.38
2022-07-26T11:30:59.660Z,100874.69
2022-07-26T11:33:47.238Z,100902.13
2022-07-26T11:36:44.270Z,100891.16
2022-07-26T11:39:33.001Z,100871.78
2022-07-26T11:42:19.500Z,100899.47
2022-07-26T11:45:09.272Z,100889.41
2022-07-26T11:47:57.837Z,100905.81
2022-07-26T11:50:42.822Z,100897.91
2022-07-26T11:53:28.113Z,100908.13
2022-07-26T11:56:15.672Z,100907.09
2022-07-26T11:59:01.161Z,100919.88
2022-07-26T12:01:49.863Z,100911.72
2022-07-26T12:04:37.878Z,100920.16
2022-07-26T12:07:23.161Z,100916.81
2022-07-26T12:10:08.156Z,100919.44
2022-07-26T12:13:15.387Z,100927.41
2022-07-26T12:16:00.638Z,100923.00
2022-07-26T12:18:51.216Z,100918.09
2022-07-26T12:22:07.913Z,100936.28
2022-07-26T12:24:58.273Z,100923.47
2022-07-26T12:27:46.511Z,100916.50
2022-07-26T12:30:35.562Z,100918.88
2022-07-26T12:33:20.853Z,100900.38
2022-07-26T12:36:28.490Z,100895.19
2022-07-26T12:39:21.449Z,100899.53
2022-07-26T12:42:33.324Z,100903.66
2022-07-26T12:45:21.855Z,100896.06
2022-07-26T12:48:08.833Z,100893.31
2022-07-26T12:50:53.986Z,100894.06
2022-07-26T12:53:38.815Z,100905.13
2022-07-26T12:56:23.680Z,100891.06
2022-07-26T12:59:08.499Z,100890.22
2022-07-26T13:01:53.430Z,100905.78
2022-07-26T13:04:39.033Z,100884.72
2022-07-26T13:07:24.115Z,100890.00
2022-07-26T13:13:14.823Z,100905.91
2022-07-26T13:15:59.898Z,100895.47
2022-07-26T13:18:44.796Z,100885.56
2022-07-26T13:21:33.427Z,100922.22
2022-07-26T13:24:18.831Z,100904.88
2022-07-26T13:27:06.824Z,100911.47
2022-07-26T13:29:51.505Z,100914.28
2022-07-26T13:32:36.501Z,100931.72
2022-07-26T13:35:21.348Z,100912.38
2022-07-26T13:38:06.230Z,100905.13
2022-07-26T13:40:54.223Z,100933.97
2022-07-26T13:43:39.650Z,100923.69
2022-07-26T13:46:26.433Z,100939.50
2022-07-26T13:49:13.452Z,100943.69
2022-07-26T13:51:58.672Z,100955.03
2022-07-26T13:54:43.767Z,100949.78
2022-07-26T13:57:49.098Z,100954.31
2022-07-26T14:00:33.755Z,100971.69
2022-07-26T14:03:19.376Z,100962.78
2022-07-26T14:06:04.598Z,100964.44
2022-07-26T14:08:49.581Z,100968.75
2022-07-26T14:11:35.156Z,100979.47
2022-07-26T14:14:20.786Z,100989.00
2022-07-26T14:17:05.809Z,100987.63
2022-07-26T14:19:51.130Z,101005.09
2022-07-26T14:22:36.670Z,100999.78
2022-07-26T14:25:26.858Z,100996.31
2022-07-26T14:28:11.975Z,101001.16
2022-07-26T14:30:57.175Z,101002.28
2022-07-26T14:33:42.074Z,101006.63
2022-07-26T14:36:27.218Z,101004.75
2022-07-26T14:39:12.129Z,100996.94
2022-07-26T14:41:57.924Z,100985.63
2022-07-26T14:44:44.509Z,100971.53
2022-07-26T14:47:29.597Z,100968.88
2022-07-26T14:50:14.981Z,100957.38
2022-07-26T14:52:59.976Z,100964.19
2022-07-26T14:55:44.826Z,100962.53
2022-07-26T14:58:29.647Z,100967.41
2022-07-26T15:01:14.601Z,100969.06
2022-07-26T15:03:59.922Z,100970.78
2022-07-26T15:06:45.381Z,100961.31
2022-07-26T15:09:30.347Z,100978.97
2022-07-26T15:12:15.264Z,100973.88
2022-07-26T15:15:00.108Z,100981.75
2022-07-26T15:17:45.070Z,100974.69
2022-07-26T15:20:29.872Z,100969.66
2022-07-26T15:23:14.819Z,100988.81
2022-07-26T15:25:59.786Z,100979.66
2022-07-26T15:28:44.642Z,100969.31
2022-07-26T15:31:37.223Z,100971.03
2022-07-26T15:34:22.974Z,100975.59
2022-07-26T15:37:07.950Z,100991.69
2022-07-26T15:39:53.059Z,100966.94
2022-07-26T15:42:43.408Z,100958.13
2022-07-26T15:45:30.108Z,100972.59
2022-07-26T15:48:22.391Z,100959.22
2022-07-26T15:51:07.691Z,100951.97
2022-07-26T15:53:53.954Z,100959.16
2022-07-26T15:56:39.160Z,100939.03
2022-07-26T15:59:24.057Z,100946.34
2022-07-26T16:02:09.524Z,100979.97
2022-07-26T16:04:55.038Z,100972.56
2022-07-26T16:07:40.969Z,100946.97
2022-07-26T16:10:25.894Z,100946.78
2022-07-26T16:13:11.229Z,100925.88
2022-07-26T16:15:56.105Z,100936.03
2022-07-26T16:18:41.929Z,100944.84
2022-07-26T16:21:27.268Z,100934.97
2022-07-26T16:24:12.218Z,100939.09
2022-07-26T16:26:57.421Z,100928.78
2022-07-26T16:29:42.601Z,100926.56
2022-07-26T16:32:27.602Z,100936.13
2022-07-26T16:35:13.156Z,100950.63
2022-07-26T16:37:58.289Z,100957.69
2022-07-26T16:40:43.565Z,100949.56
2022-07-26T16:43:28.747Z,100915.47
2022-07-26T16:46:14.192Z,100920.25
2022-07-26T16:48:59.598Z,100934.97
2022-07-26T16:51:45.104Z,100934.13
2022-07-26T16:54:30.067Z,100930.53
2022-07-26T16:57:15.246Z,100934.84
2022-07-26T17:00:00.604Z,100932.28
2022-07-26T17:02:45.611Z,100946.97
2022-07-26T17:05:30.895Z,100948.00
2022-07-26T17:08:16.130Z,100954.97
2022-07-26T17:11:01.558Z,100961.94
2022-07-26T17:13:46.726Z,100954.06
2022-07-26T17:16:31.924Z,100968.78
2022-07-26T17:19:16.842Z,100946.78
2022-07-26T17:22:02.287Z,100946.78
2022-07-26T17:24:48.477Z,100953.81
2022-07-26T17:27:33.768Z,100964.50
2022-07-26T17:30:18.828Z,100943.97
2022-07-26T17:33:03.891Z,100962.31
2022-07-26T17:35:49.024Z,100963.09
2022-07-26T17:38:34.421Z,100950.00
2022-07-26T17:41:19.567Z,100939.53
2022-07-26T17:44:05.249Z,100961.50
2022-07-26T17:46:50.829Z,100972.84
2022-07-26T17:49:35.961Z,100954.19
2022-07-26T17:52:21.339Z,100953.75
2022-07-26T17:55:07.084Z,100953.91
2022-07-26T17:57:52.385Z,100963.69
2022-07-26T18:00:37.766Z,100956.75
2022-07-26T18:03:23.035Z,100952.41
2022-07-26T18:06:08.780Z,100940.00
2022-07-26T18:08:53.916Z,100981.41
2022-07-26T18:11:39.782Z,100972.69
2022-07-26T18:14:25.195Z,100980.00
2022-07-26T18:17:10.627Z,100962.56
2022-07-26T18:19:55.476Z,100967.00
2022-07-26T18:22:40.906Z,100980.09
2022-07-26T18:25:26.295Z,100980.09
2022-07-26T18:28:11.383Z,100974.06
2022-07-26T18:30:56.505Z,100960.00
2022-07-26T18:33:41.706Z,100931.94
2022-07-26T18:36:26.740Z,100963.34
2022-07-26T18:39:12.591Z,100951.94
2022-07-26T18:41:58.056Z,100927.00
2022-07-26T18:44:43.369Z,100941.78
2022-07-26T18:47:28.787Z,100959.00
2022-07-26T18:50:16.982Z,100968.56
2022-07-26T18:53:02.352Z,100965.09
2022-07-26T18:55:47.590Z,100979.13
2022-07-26T18:58:32.845Z,100968.63
2022-07-26T19:01:17.900Z,100960.81
2022-07-26T19:04:06.859Z,100980.94
2022-07-26T19:06:52.926Z,100981.88
2022-07-26T19:09:38.031Z,100987.25
2022-07-26T19:12:23.510Z,100977.97
2022-07-26T19:15:09.114Z,100953.38
2022-07-26T19:17:54.244Z,100941.19
2022-07-26T19:20:39.582Z,100978.81
2022-07-26T19:23:25.191Z,100982.28
2022-07-26T19:26:11.076Z,100997.19
2022-07-26T19:28:55.854Z,101006.13
2022-07-26T19:31:41.451Z,101011.56
2022-07-26T19:34:26.727Z,101006.31
2022-07-26T19:37:12.139Z,101010.63
2022-07-26T19:39:57.145Z,101021.16
2022-07-26T19:42:42.570Z,101028.38
2022-07-26T19:45:27.984Z,101029.19
2022-07-26T19:48:13.369Z,101036.28
2022-07-26T19:50:58.813Z,101031.97
2022-07-26T19:53:44.199Z,101031.19
2022-07-26T19:56:29.636Z,101035.53
2022-07-26T19:59:19.487Z,101031.94
2022-07-26T20:02:08.050Z,101040.72
2022-07-26T20:04:53.480Z,101044.16
2022-07-26T20:07:38.816Z,101066.94
2022-07-26T20:10:27.304Z,101063.50
2022-07-26T20:13:15.018Z,101056.47
2022-07-26T20:16:00.456Z,101057.34
2022-07-26T20:18:46.063Z,101069.59
2022-07-26T20:21:31.286Z,101076.56
2022-07-26T20:24:16.235Z,101078.38
2022-07-26T20:27:01.562Z,101083.59
2022-07-26T20:29:47.061Z,101067.94
2022-07-26T20:32:32.511Z,101071.44
2022-07-26T20:35:17.600Z,101091.47
2022-07-26T20:38:02.569Z,101090.66
2022-07-26T20:40:47.767Z,101072.34
2022-07-26T20:43:33.231Z,101095.88
2022-07-26T20:46:19.718Z,101105.44
2022-07-26T20:49:06.300Z,101099.34
2022-07-26T20:51:51.315Z,101069.75
2022-07-26T20:54:36.763Z,101054.13
2022-07-26T20:57:21.600Z,101068.06
2022-07-26T21:00:09.304Z,101058.47
2022-07-26T21:02:54.178Z,101057.66
2022-07-26T21:05:39.594Z,101066.34
2022-07-26T21:08:24.900Z,101076.84
2022-07-26T21:11:09.800Z,101090.72
2022-07-26T21:13:55.097Z,101079.38
2022-07-26T21:16:40.647Z,101080.22
2022-07-26T21:19:26.065Z,101085.50
2022-07-26T21:22:11.553Z,101096.00
2022-07-26T21:24:56.769Z,101092.56
2022-07-26T21:27:42.250Z,101093.41
2022-07-26T21:30:27.791Z,101098.63
2022-07-26T21:33:13.601Z,101082.13
2022-07-26T21:35:58.690Z,101075.13
2022-07-26T21:38:44.266Z,101095.19
2022-07-26T21:41:29.397Z,101100.47
2022-07-26T21:44:15.924Z,101092.63
2022-07-26T21:47:29.900Z,101103.94
2022-07-26T21:50:17.771Z,101076.91
2022-07-26T21:53:03.329Z,101092.59
2022-07-26T21:55:48.617Z,101090.03
2022-07-26T21:58:36.556Z,101091.72
2022-07-26T22:01:22.052Z,101111.75
2022-07-26T22:04:07.410Z,101117.00
2022-07-26T22:06:52.570Z,101094.38
2022-07-26T22:09:38.523Z,101078.69
2022-07-26T22:12:23.834Z,101100.47
2022-07-26T22:15:09.706Z,101097.88
2022-07-26T22:17:55.100Z,101096.13
2022-07-26T22:20:41.317Z,101092.66
2022-07-26T22:23:27.123Z,101072.66
2022-07-26T22:26:14.396Z,101080.47
2022-07-26T22:28:59.698Z,101095.28
2022-07-26T22:31:44.673Z,101133.63
2022-07-26T22:34:30.025Z,101099.63
2022-07-26T22:37:15.405Z,101107.47
2022-07-26T22:40:00.507Z,101114.44
2022-07-26T22:42:45.595Z,101131.00
2022-07-26T22:45:31.719Z,101090.94
2022-07-26T22:48:17.029Z,101119.66
2022-07-26T22:51:07.600Z,101107.47
2022-07-26T22:53:52.869Z,101094.41
2022-07-26T22:56:39.654Z,101099.63
2022-07-26T22:59:24.785Z,101119.69
2022-07-26T23:02:10.203Z,101142.31
2022-07-26T23:04:55.680Z,101124.03
2022-07-26T23:07:42.612Z,101100.50
2022-07-26T23:10:31.177Z,101122.28
2022-07-26T23:13:16.579Z,101080.50
2022-07-26T23:16:02.263Z,101119.69
2022-07-26T23:18:47.203Z,101117.94
2022-07-26T23:21:32.494Z,101099.69
2022-07-26T23:24:17.931Z,101095.31
2022-07-26T23:27:04.122Z,101149.28
2022-07-26T23:29:49.210Z,101134.47
2022-07-26T23:32:34.695Z,101171.06
2022-07-26T23:35:19.575Z,101177.16
2022-07-26T23:38:04.860Z,101157.13
2022-07-26T23:40:50.146Z,101131.00
2022-07-26T23:43:35.457Z,101109.22
2022-07-26T23:46:21.619Z,101090.09
2022-07-26T23:49:06.576Z,101092.69
2022-07-26T23:51:52.270Z,101097.91
2022-07-26T23:54:37.396Z,101118.81
2022-07-26T23:57:22.877Z,101117.94
